sensor_id;sensor_type;location;lat;lon;timestamp;P1;durP1;ratioP1;P2;durP2;ratioP2
62915;SDS011;49010;51.230;-2.306;2023-02-20T00:00:25;5.28;;;1.70;;
62915;SDS011;49010;51.230;-2.306;2023-02-20T00:04:09;3.95;;;1.35;;
62915;SDS011;49010;51.230;-2.306;2023-02-20T00:07:50;3.88;;;0.88;;
62915;SDS011;49010;51.230;-2.306;2023-02-20T00:11:32;4.00;;;0.90;;
62915;SDS011;49010;51.230;-2.306;2023-02-20T00:15:14;4.47;;;1.63;;
62915;SDS011;49010;51.230;-2.306;2023-02-20T00:18:59;2.92;;;0.70;;
62915;SDS011;49010;51.230;-2.306;2023-02-20T00:22:41;5.00;;;0.80;;
62915;SDS011;49010;51.230;-2.306;2023-02-20T00:26:22;2.47;;;0.77;;
62915;SDS011;49010;51.230;-2.306;2023-02-20T00:30:04;3.85;;;1.10;;
62915;SDS011;49010;51.230;-2.306;2023-02-20T00:33:47;4.35;;;1.10;;
62915;SDS011;49010;51.230;-2.306;2023-02-20T00:37:29;4.32;;;1.08;;
62915;SDS011;49010;51.230;-2.306;2023-02-20T00:41:11;4.13;;;0.88;;
62915;SDS011;49010;51.230;-2.306;2023-02-20T00:44:58;1.23;;;0.60;;
62915;SDS011;49010;51.230;-2.306;2023-02-20T00:48:39;5.40;;;1.17;;
62915;SDS011;49010;51.230;-2.306;2023-02-20T00:52:21;3.88;;;0.98;;
62915;SDS011;49010;51.230;-2.306;2023-02-20T00:56:03;1.23;;;0.88;;
62915;SDS011;49010;51.230;-2.306;2023-02-20T00:59:45;3.42;;;1.10;;
62915;SDS011;49010;51.230;-2.306;2023-02-20T01:03:27;4.35;;;0.80;;
62915;SDS011;49010;51.230;-2.306;2023-02-20T01:07:09;3.47;;;1.10;;
62915;SDS011;49010;51.230;-2.306;2023-02-20T01:10:51;1.92;;;0.73;;
62915;SDS011;49010;51.230;-2.306;2023-02-20T01:18:32;4.78;;;0.68;;
62915;SDS011;49010;51.230;-2.306;2023-02-20T01:22:14;3.17;;;0.70;;
62915;SDS011;49010;51.230;-2.306;2023-02-20T01:25:56;2.40;;;0.60;;
62915;SDS011;49010;51.230;-2.306;2023-02-20T01:29:37;2.22;;;0.70;;
62915;SDS011;49010;51.230;-2.306;2023-02-20T01:33:19;2.15;;;0.77;;
62915;SDS011;49010;51.230;-2.306;2023-02-20T01:37:01;1.10;;;0.55;;
62915;SDS011;49010;51.230;-2.306;2023-02-20T01:40:47;2.20;;;0.88;;
62915;SDS011;49010;51.230;-2.306;2023-02-20T01:44:31;3.13;;;1.13;;
62915;SDS011;49010;51.230;-2.306;2023-02-20T01:48:20;2.92;;;0.60;;
62915;SDS011;49010;51.230;-2.306;2023-02-20T01:55:48;3.03;;;0.75;;
62915;SDS011;49010;51.230;-2.306;2023-02-20T01:59:39;2.92;;;0.52;;
62915;SDS011;49010;51.230;-2.306;2023-02-20T02:03:23;1.30;;;0.70;;
62915;SDS011;49010;51.230;-2.306;2023-02-20T02:07:09;1.93;;;0.67;;
62915;SDS011;49010;51.230;-2.306;2023-02-20T02:11:02;3.17;;;0.77;;
62915;SDS011;49010;51.230;-2.306;2023-02-20T02:14:46;4.57;;;1.30;;
62915;SDS011;49010;51.230;-2.306;2023-02-20T02:18:34;1.58;;;1.02;;
62915;SDS011;49010;51.230;-2.306;2023-02-20T02:30:36;3.35;;;1.00;;
62915;SDS011;49010;51.230;-2.306;2023-02-20T02:38:35;3.83;;;1.10;;
62915;SDS011;49010;51.230;-2.306;2023-02-20T02:42:39;1.33;;;0.70;;
62915;SDS011;49010;51.230;-2.306;2023-02-20T02:50:39;1.35;;;0.70;;
62915;SDS011;49010;51.230;-2.306;2023-02-20T02:54:25;1.95;;;0.80;;
62915;SDS011;49010;51.230;-2.306;2023-02-20T02:58:08;1.00;;;0.70;;
62915;SDS011;49010;51.230;-2.306;2023-02-20T03:01:59;3.25;;;0.88;;
62915;SDS011;49010;51.230;-2.306;2023-02-20T03:09:40;1.40;;;1.15;;
62915;SDS011;49010;51.230;-2.306;2023-02-20T03:13:50;2.40;;;0.77;;
62915;SDS011;49010;51.230;-2.306;2023-02-20T03:22:18;1.63;;;0.60;;
62915;SDS011;49010;51.230;-2.306;2023-02-20T03:26:05;2.58;;;0.70;;
62915;SDS011;49010;51.230;-2.306;2023-02-20T03:29:51;3.03;;;0.60;;
62915;SDS011;49010;51.230;-2.306;2023-02-20T03:33:39;2.10;;;0.90;;
62915;SDS011;49010;51.230;-2.306;2023-02-20T03:37:49;1.77;;;0.60;;
62915;SDS011;49010;51.230;-2.306;2023-02-20T03:41:50;2.53;;;0.73;;
62915;SDS011;49010;51.230;-2.306;2023-02-20T03:45:56;1.27;;;0.47;;
62915;SDS011;49010;51.230;-2.306;2023-02-20T03:49:42;1.05;;;0.60;;
62915;SDS011;49010;51.230;-2.306;2023-02-20T03:53:26;2.17;;;0.85;;
62915;SDS011;49010;51.230;-2.306;2023-02-20T03:57:09;2.47;;;0.70;;
62915;SDS011;49010;51.230;-2.306;2023-02-20T04:00:54;2.97;;;0.70;;
62915;SDS011;49010;51.230;-2.306;2023-02-20T04:04:45;1.77;;;0.98;;
62915;SDS011;49010;51.230;-2.306;2023-02-20T04:08:53;3.28;;;1.10;;
62915;SDS011;49010;51.230;-2.306;2023-02-20T04:12:41;2.55;;;0.93;;
62915;SDS011;49010;51.230;-2.306;2023-02-20T04:16:25;1.95;;;0.80;;
62915;SDS011;49010;51.230;-2.306;2023-02-20T04:20:07;5.30;;;1.30;;
62915;SDS011;49010;51.230;-2.306;2023-02-20T04:23:53;2.90;;;0.82;;
62915;SDS011;49010;51.230;-2.306;2023-02-20T04:27:43;3.45;;;1.33;;
62915;SDS011;49010;51.230;-2.306;2023-02-20T04:31:25;2.10;;;0.80;;
62915;SDS011;49010;51.230;-2.306;2023-02-20T04:35:08;2.50;;;1.08;;
62915;SDS011;49010;51.230;-2.306;2023-02-20T04:38:56;3.45;;;1.00;;
62915;SDS011;49010;51.230;-2.306;2023-02-20T04:42:38;3.38;;;0.90;;
62915;SDS011;49010;51.230;-2.306;2023-02-20T04:46:19;1.70;;;0.80;;
62915;SDS011;49010;51.230;-2.306;2023-02-20T04:50:04;1.85;;;1.13;;
62915;SDS011;49010;51.230;-2.306;2023-02-20T04:53:46;3.38;;;1.10;;
62915;SDS011;49010;51.230;-2.306;2023-02-20T04:57:27;4.55;;;1.23;;
62915;SDS011;49010;51.230;-2.306;2023-02-20T05:01:09;3.75;;;1.42;;
62915;SDS011;49010;51.230;-2.306;2023-02-20T05:04:51;2.65;;;1.20;;
62915;SDS011;49010;51.230;-2.306;2023-02-20T05:08:33;2.53;;;1.00;;
62915;SDS011;49010;51.230;-2.306;2023-02-20T05:12:15;6.88;;;1.30;;
62915;SDS011;49010;51.230;-2.306;2023-02-20T05:15:56;3.17;;;0.98;;
62915;SDS011;49010;51.230;-2.306;2023-02-20T05:19:38;2.90;;;1.00;;
62915;SDS011;49010;51.230;-2.306;2023-02-20T05:23:20;3.38;;;0.98;;
62915;SDS011;49010;51.230;-2.306;2023-02-20T05:27:02;3.03;;;0.88;;
62915;SDS011;49010;51.230;-2.306;2023-02-20T05:30:44;3.45;;;1.15;;
62915;SDS011;49010;51.230;-2.306;2023-02-20T05:34:26;4.50;;;1.20;;
62915;SDS011;49010;51.230;-2.306;2023-02-20T05:38:07;2.45;;;1.10;;
62915;SDS011;49010;51.230;-2.306;2023-02-20T05:41:49;3.60;;;1.30;;
62915;SDS011;49010;51.230;-2.306;2023-02-20T05:45:31;1.95;;;0.82;;
62915;SDS011;49010;51.230;-2.306;2023-02-20T05:49:13;2.97;;;1.10;;
62915;SDS011;49010;51.230;-2.306;2023-02-20T05:52:56;2.58;;;0.75;;
62915;SDS011;49010;51.230;-2.306;2023-02-20T05:56:41;3.63;;;0.80;;
62915;SDS011;49010;51.230;-2.306;2023-02-20T06:00:24;1.63;;;0.65;;
62915;SDS011;49010;51.230;-2.306;2023-02-20T06:04:06;0.63;;;0.52;;
62915;SDS011;49010;51.230;-2.306;2023-02-20T06:07:48;2.25;;;0.80;;
62915;SDS011;49010;51.230;-2.306;2023-02-20T06:11:30;0.98;;;0.60;;
62915;SDS011;49010;51.230;-2.306;2023-02-20T06:15:11;1.08;;;0.60;;
62915;SDS011;49010;51.230;-2.306;2023-02-20T06:18:54;1.95;;;0.77;;
62915;SDS011;49010;51.230;-2.306;2023-02-20T06:22:36;2.17;;;0.63;;
62915;SDS011;49010;51.230;-2.306;2023-02-20T06:26:18;3.72;;;0.95;;
62915;SDS011;49010;51.230;-2.306;2023-02-20T06:30:01;1.70;;;0.70;;
62915;SDS011;49010;51.230;-2.306;2023-02-20T06:33:42;1.85;;;1.00;;
62915;SDS011;49010;51.230;-2.306;2023-02-20T06:37:24;2.25;;;0.85;;
62915;SDS011;49010;51.230;-2.306;2023-02-20T06:41:06;1.23;;;0.77;;
62915;SDS011;49010;51.230;-2.306;2023-02-20T06:44:48;1.20;;;0.70;;
62915;SDS011;49010;51.230;-2.306;2023-02-20T06:48:29;1.00;;;0.70;;
62915;SDS011;49010;51.230;-2.306;2023-02-20T06:52:11;3.17;;;0.73;;
62915;SDS011;49010;51.230;-2.306;2023-02-20T06:55:54;1.13;;;0.80;;
62915;SDS011;49010;51.230;-2.306;2023-02-20T06:59:35;2.67;;;0.90;;
62915;SDS011;49010;51.230;-2.306;2023-02-20T07:03:21;1.00;;;0.55;;
62915;SDS011;49010;51.230;-2.306;2023-02-20T07:07:03;1.60;;;0.63;;
62915;SDS011;49010;51.230;-2.306;2023-02-20T07:10:45;1.67;;;0.50;;
62915;SDS011;49010;51.230;-2.306;2023-02-20T07:14:26;2.35;;;0.60;;
62915;SDS011;49010;51.230;-2.306;2023-02-20T07:18:08;1.88;;;1.10;;
62915;SDS011;49010;51.230;-2.306;2023-02-20T07:21:50;2.78;;;1.33;;
62915;SDS011;49010;51.230;-2.306;2023-02-20T07:25:32;1.92;;;1.30;;
62915;SDS011;49010;51.230;-2.306;2023-02-20T07:29:14;3.30;;;1.10;;
62915;SDS011;49010;51.230;-2.306;2023-02-20T07:32:56;2.75;;;1.48;;
62915;SDS011;49010;51.230;-2.306;2023-02-20T07:36:38;2.95;;;1.80;;
62915;SDS011;49010;51.230;-2.306;2023-02-20T07:40:21;3.40;;;1.90;;
62915;SDS011;49010;51.230;-2.306;2023-02-20T07:44:03;4.45;;;1.00;;
62915;SDS011;49010;51.230;-2.306;2023-02-20T07:47:45;3.95;;;1.42;;
62915;SDS011;49010;51.230;-2.306;2023-02-20T07:51:27;3.53;;;1.65;;
62915;SDS011;49010;51.230;-2.306;2023-02-20T07:55:09;2.97;;;1.40;;
62915;SDS011;49010;51.230;-2.306;2023-02-20T07:58:53;2.67;;;1.02;;
62915;SDS011;49010;51.230;-2.306;2023-02-20T08:02:35;1.92;;;1.00;;
62915;SDS011;49010;51.230;-2.306;2023-02-20T08:06:17;3.47;;;1.20;;
62915;SDS011;49010;51.230;-2.306;2023-02-20T08:09:59;1.90;;;1.02;;
62915;SDS011;49010;51.230;-2.306;2023-02-20T08:13:42;1.67;;;1.13;;
62915;SDS011;49010;51.230;-2.306;2023-02-20T08:17:24;3.60;;;0.88;;
62915;SDS011;49010;51.230;-2.306;2023-02-20T08:21:17;3.03;;;1.27;;
62915;SDS011;49010;51.230;-2.306;2023-02-20T08:24:59;3.13;;;0.85;;
62915;SDS011;49010;51.230;-2.306;2023-02-20T08:28:41;1.63;;;0.82;;
62915;SDS011;49010;51.230;-2.306;2023-02-20T08:32:23;1.73;;;0.70;;
62915;SDS011;49010;51.230;-2.306;2023-02-20T08:36:05;1.60;;;0.85;;
62915;SDS011;49010;51.230;-2.306;2023-02-20T08:39:47;1.73;;;1.00;;
62915;SDS011;49010;51.230;-2.306;2023-02-20T08:43:29;1.75;;;1.10;;
62915;SDS011;49010;51.230;-2.306;2023-02-20T08:47:11;1.45;;;0.90;;
62915;SDS011;49010;51.230;-2.306;2023-02-20T08:50:53;2.58;;;1.10;;
62915;SDS011;49010;51.230;-2.306;2023-02-20T08:54:35;3.08;;;0.90;;
62915;SDS011;49010;51.230;-2.306;2023-02-20T08:58:17;1.92;;;0.88;;
62915;SDS011;49010;51.230;-2.306;2023-02-20T09:02:03;1.52;;;0.77;;
62915;SDS011;49010;51.230;-2.306;2023-02-20T09:05:45;2.42;;;0.75;;
62915;SDS011;49010;51.230;-2.306;2023-02-20T09:09:27;1.52;;;0.85;;
62915;SDS011;49010;51.230;-2.306;2023-02-20T09:13:11;1.92;;;0.70;;
62915;SDS011;49010;51.230;-2.306;2023-02-20T09:16:53;1.95;;;0.60;;
62915;SDS011;49010;51.230;-2.306;2023-02-20T09:20:35;2.28;;;0.75;;
62915;SDS011;49010;51.230;-2.306;2023-02-20T09:24:18;2.15;;;0.90;;
62915;SDS011;49010;51.230;-2.306;2023-02-20T09:28:00;1.67;;;0.85;;
62915;SDS011;49010;51.230;-2.306;2023-02-20T09:31:41;1.90;;;1.10;;
62915;SDS011;49010;51.230;-2.306;2023-02-20T09:35:25;2.08;;;1.23;;
62915;SDS011;49010;51.230;-2.306;2023-02-20T09:39:08;2.15;;;1.15;;
62915;SDS011;49010;51.230;-2.306;2023-02-20T09:46:44;1.35;;;0.90;;
62915;SDS011;49010;51.230;-2.306;2023-02-20T09:50:48;2.15;;;1.20;;
62915;SDS011;49010;51.230;-2.306;2023-02-20T09:54:36;1.75;;;0.93;;
62915;SDS011;49010;51.230;-2.306;2023-02-20T10:02:38;3.57;;;1.00;;
62915;SDS011;49010;51.230;-2.306;2023-02-20T10:06:31;2.55;;;1.38;;
62915;SDS011;49010;51.230;-2.306;2023-02-20T10:10:27;3.17;;;1.50;;
62915;SDS011;49010;51.230;-2.306;2023-02-20T10:26:24;2.70;;;1.55;;
62915;SDS011;49010;51.230;-2.306;2023-02-20T10:30:11;4.93;;;1.73;;
62915;SDS011;49010;51.230;-2.306;2023-02-20T10:33:58;2.93;;;1.53;;
62915;SDS011;49010;51.230;-2.306;2023-02-20T10:37:47;2.78;;;1.67;;
62915;SDS011;49010;51.230;-2.306;2023-02-20T10:41:41;2.65;;;1.40;;
62915;SDS011;49010;51.230;-2.306;2023-02-20T10:53:46;4.63;;;2.40;;
62915;SDS011;49010;51.230;-2.306;2023-02-20T10:57:34;3.35;;;2.20;;
62915;SDS011;49010;51.230;-2.306;2023-02-20T11:01:20;2.77;;;1.73;;
62915;SDS011;49010;51.230;-2.306;2023-02-20T11:05:15;2.22;;;1.52;;
62915;SDS011;49010;51.230;-2.306;2023-02-20T11:09:00;1.35;;;1.08;;
62915;SDS011;49010;51.230;-2.306;2023-02-20T11:12:43;3.15;;;2.00;;
62915;SDS011;49010;51.230;-2.306;2023-02-20T11:16:35;2.13;;;1.55;;
62915;SDS011;49010;51.230;-2.306;2023-02-20T11:20:36;4.00;;;1.60;;
62915;SDS011;49010;51.230;-2.306;2023-02-20T11:24:25;2.95;;;1.50;;
62915;SDS011;49010;51.230;-2.306;2023-02-20T11:28:15;2.78;;;1.08;;
62915;SDS011;49010;51.230;-2.306;2023-02-20T11:32:15;1.52;;;0.93;;
62915;SDS011;49010;51.230;-2.306;2023-02-20T11:36:16;2.22;;;1.20;;
62915;SDS011;49010;51.230;-2.306;2023-02-20T11:40:03;2.00;;;1.30;;
62915;SDS011;49010;51.230;-2.306;2023-02-20T11:43:46;2.28;;;1.38;;
62915;SDS011;49010;51.230;-2.306;2023-02-20T11:47:41;2.10;;;1.23;;
62915;SDS011;49010;51.230;-2.306;2023-02-20T11:51:37;2.47;;;1.40;;
62915;SDS011;49010;51.230;-2.306;2023-02-20T11:55:20;2.10;;;1.33;;
62915;SDS011;49010;51.230;-2.306;2023-02-20T12:06:49;3.97;;;1.50;;
62915;SDS011;49010;51.230;-2.306;2023-02-20T12:10:37;4.10;;;1.23;;
62915;SDS011;49010;51.230;-2.306;2023-02-20T12:14:25;2.25;;;1.23;;
62915;SDS011;49010;51.230;-2.306;2023-02-20T12:18:14;2.78;;;1.50;;
62915;SDS011;49010;51.230;-2.306;2023-02-20T12:42:31;2.45;;;1.27;;
62915;SDS011;49010;51.230;-2.306;2023-02-20T12:46:22;5.53;;;1.60;;
62915;SDS011;49010;51.230;-2.306;2023-02-20T12:50:29;2.90;;;1.55;;
62915;SDS011;49010;51.230;-2.306;2023-02-20T13:02:12;2.08;;;1.10;;
62915;SDS011;49010;51.230;-2.306;2023-02-20T13:06:42;2.08;;;1.30;;
62915;SDS011;49010;51.230;-2.306;2023-02-20T13:10:55;2.13;;;0.85;;
62915;SDS011;49010;51.230;-2.306;2023-02-20T13:14:47;2.42;;;1.55;;
62915;SDS011;49010;51.230;-2.306;2023-02-20T13:18:53;3.80;;;1.30;;
62915;SDS011;49010;51.230;-2.306;2023-02-20T13:22:59;2.45;;;1.55;;
62915;SDS011;49010;51.230;-2.306;2023-02-20T13:30:32;1.40;;;0.98;;
62915;SDS011;49010;51.230;-2.306;2023-02-20T13:37:56;1.63;;;1.00;;
62915;SDS011;49010;51.230;-2.306;2023-02-20T13:45:38;1.75;;;0.98;;
62915;SDS011;49010;51.230;-2.306;2023-02-20T13:50:20;1.38;;;0.80;;
62915;SDS011;49010;51.230;-2.306;2023-02-20T13:53:49;1.00;;;0.70;;
62915;SDS011;49010;51.230;-2.306;2023-02-20T13:57:33;2.90;;;0.65;;
62915;SDS011;49010;51.230;-2.306;2023-02-20T14:02:02;1.65;;;0.70;;
62915;SDS011;49010;51.230;-2.306;2023-02-20T14:09:58;2.05;;;0.80;;
62915;SDS011;49010;51.230;-2.306;2023-02-20T14:13:42;1.95;;;0.77;;
62915;SDS011;49010;51.230;-2.306;2023-02-20T14:17:28;2.53;;;0.68;;
62915;SDS011;49010;51.230;-2.306;2023-02-20T14:21:16;2.42;;;1.00;;
62915;SDS011;49010;51.230;-2.306;2023-02-20T14:25:01;1.52;;;0.82;;
62915;SDS011;49010;51.230;-2.306;2023-02-20T14:28:53;1.45;;;0.95;;
62915;SDS011;49010;51.230;-2.306;2023-02-20T14:32:36;1.90;;;0.65;;
62915;SDS011;49010;51.230;-2.306;2023-02-20T14:40:41;0.95;;;0.50;;
62915;SDS011;49010;51.230;-2.306;2023-02-20T14:44:24;1.25;;;0.60;;
62915;SDS011;49010;51.230;-2.306;2023-02-20T14:48:23;1.58;;;0.68;;
62915;SDS011;49010;51.230;-2.306;2023-02-20T14:52:12;0.88;;;0.60;;
62915;SDS011;49010;51.230;-2.306;2023-02-20T14:55:55;1.67;;;0.60;;
62915;SDS011;49010;51.230;-2.306;2023-02-20T14:59:37;1.80;;;0.80;;
62915;SDS011;49010;51.230;-2.306;2023-02-20T15:03:21;1.17;;;0.60;;
62915;SDS011;49010;51.230;-2.306;2023-02-20T15:07:11;1.00;;;0.82;;
62915;SDS011;49010;51.230;-2.306;2023-02-20T15:10:53;1.75;;;0.77;;
62915;SDS011;49010;51.230;-2.306;2023-02-20T15:14:38;2.03;;;0.90;;
62915;SDS011;49010;51.230;-2.306;2023-02-20T15:30:14;1.77;;;0.50;;
62915;SDS011;49010;51.230;-2.306;2023-02-20T15:33:57;1.13;;;0.52;;
62915;SDS011;49010;51.230;-2.306;2023-02-20T15:37:40;0.63;;;0.30;;
62915;SDS011;49010;51.230;-2.306;2023-02-20T15:41:30;2.03;;;0.55;;
62915;SDS011;49010;51.230;-2.306;2023-02-20T15:45:12;1.42;;;0.50;;
62915;SDS011;49010;51.230;-2.306;2023-02-20T15:48:54;1.83;;;0.45;;
62915;SDS011;49010;51.230;-2.306;2023-02-20T15:52:37;3.28;;;0.80;;
62915;SDS011;49010;51.230;-2.306;2023-02-20T15:56:19;2.15;;;0.55;;
62915;SDS011;49010;51.230;-2.306;2023-02-20T16:00:01;1.95;;;0.50;;
62915;SDS011;49010;51.230;-2.306;2023-02-20T16:03:43;3.25;;;0.93;;
62915;SDS011;49010;51.230;-2.306;2023-02-20T16:07:34;1.60;;;0.65;;
62915;SDS011;49010;51.230;-2.306;2023-02-20T16:11:20;0.80;;;0.47;;
62915;SDS011;49010;51.230;-2.306;2023-02-20T16:15:05;1.70;;;0.88;;
62915;SDS011;49010;51.230;-2.306;2023-02-20T16:18:48;2.08;;;0.80;;
62915;SDS011;49010;51.230;-2.306;2023-02-20T16:22:31;1.40;;;0.73;;
62915;SDS011;49010;51.230;-2.306;2023-02-20T16:26:13;3.00;;;0.60;;
62915;SDS011;49010;51.230;-2.306;2023-02-20T16:29:56;4.28;;;1.17;;
62915;SDS011;49010;51.230;-2.306;2023-02-20T16:33:38;3.28;;;1.80;;
62915;SDS011;49010;51.230;-2.306;2023-02-20T16:37:20;3.50;;;1.70;;
62915;SDS011;49010;51.230;-2.306;2023-02-20T16:41:02;3.50;;;1.60;;
62915;SDS011;49010;51.230;-2.306;2023-02-20T16:44:44;3.55;;;2.13;;
62915;SDS011;49010;51.230;-2.306;2023-02-20T16:48:28;3.20;;;1.83;;
62915;SDS011;49010;51.230;-2.306;2023-02-20T16:56:11;4.47;;;1.50;;
62915;SDS011;49010;51.230;-2.306;2023-02-20T16:59:54;3.83;;;1.73;;
62915;SDS011;49010;51.230;-2.306;2023-02-20T17:03:38;10.93;;;4.55;;
62915;SDS011;49010;51.230;-2.306;2023-02-20T17:07:19;6.55;;;2.33;;
62915;SDS011;49010;51.230;-2.306;2023-02-20T17:11:01;4.22;;;1.52;;
62915;SDS011;49010;51.230;-2.306;2023-02-20T17:14:43;4.95;;;1.30;;
62915;SDS011;49010;51.230;-2.306;2023-02-20T17:18:26;4.22;;;1.83;;
62915;SDS011;49010;51.230;-2.306;2023-02-20T17:22:08;6.95;;;2.95;;
62915;SDS011;49010;51.230;-2.306;2023-02-20T17:25:50;4.15;;;1.85;;
62915;SDS011;49010;51.230;-2.306;2023-02-20T17:29:32;7.18;;;1.95;;
62915;SDS011;49010;51.230;-2.306;2023-02-20T17:33:14;3.13;;;1.70;;
62915;SDS011;49010;51.230;-2.306;2023-02-20T17:36:56;4.55;;;2.13;;
62915;SDS011;49010;51.230;-2.306;2023-02-20T17:40:37;4.95;;;2.28;;
62915;SDS011;49010;51.230;-2.306;2023-02-20T17:44:22;3.40;;;1.90;;
62915;SDS011;49010;51.230;-2.306;2023-02-20T17:48:05;2.85;;;1.92;;
62915;SDS011;49010;51.230;-2.306;2023-02-20T17:51:52;3.85;;;1.70;;
62915;SDS011;49010;51.230;-2.306;2023-02-20T17:55:41;4.50;;;2.00;;
62915;SDS011;49010;51.230;-2.306;2023-02-20T17:59:23;3.22;;;1.60;;
62915;SDS011;49010;51.230;-2.306;2023-02-20T18:03:05;3.97;;;2.17;;
62915;SDS011;49010;51.230;-2.306;2023-02-20T18:06:47;4.05;;;2.10;;
62915;SDS011;49010;51.230;-2.306;2023-02-20T18:10:29;3.30;;;1.70;;
62915;SDS011;49010;51.230;-2.306;2023-02-20T18:14:11;4.38;;;1.60;;
62915;SDS011;49010;51.230;-2.306;2023-02-20T18:17:53;3.05;;;1.50;;
62915;SDS011;49010;51.230;-2.306;2023-02-20T18:21:35;7.28;;;1.92;;
62915;SDS011;49010;51.230;-2.306;2023-02-20T18:25:18;4.70;;;2.60;;
62915;SDS011;49010;51.230;-2.306;2023-02-20T18:29:11;4.82;;;1.75;;
62915;SDS011;49010;51.230;-2.306;2023-02-20T18:32:53;5.82;;;2.05;;
62915;SDS011;49010;51.230;-2.306;2023-02-20T18:36:35;4.53;;;1.65;;
62915;SDS011;49010;51.230;-2.306;2023-02-20T18:40:18;3.97;;;2.33;;
62915;SDS011;49010;51.230;-2.306;2023-02-20T18:43:59;3.65;;;1.90;;
62915;SDS011;49010;51.230;-2.306;2023-02-20T18:47:41;5.55;;;2.60;;
62915;SDS011;49010;51.230;-2.306;2023-02-20T18:51:30;5.00;;;2.60;;
62915;SDS011;49010;51.230;-2.306;2023-02-20T18:55:14;4.00;;;3.20;;
62915;SDS011;49010;51.230;-2.306;2023-02-20T18:59:00;4.55;;;2.90;;
62915;SDS011;49010;51.230;-2.306;2023-02-20T19:02:45;6.30;;;2.67;;
62915;SDS011;49010;51.230;-2.306;2023-02-20T19:06:30;4.05;;;2.50;;
62915;SDS011;49010;51.230;-2.306;2023-02-20T19:10:25;9.55;;;2.88;;
62915;SDS011;49010;51.230;-2.306;2023-02-20T19:14:07;4.90;;;2.65;;
62915;SDS011;49010;51.230;-2.306;2023-02-20T19:17:50;7.80;;;3.05;;
62915;SDS011;49010;51.230;-2.306;2023-02-20T19:21:32;5.80;;;2.97;;
62915;SDS011;49010;51.230;-2.306;2023-02-20T19:25:14;5.05;;;3.15;;
62915;SDS011;49010;51.230;-2.306;2023-02-20T19:28:56;8.15;;;3.67;;
62915;SDS011;49010;51.230;-2.306;2023-02-20T19:32:43;5.22;;;3.35;;
62915;SDS011;49010;51.230;-2.306;2023-02-20T19:36:25;4.07;;;2.20;;
62915;SDS011;49010;51.230;-2.306;2023-02-20T19:40:07;6.32;;;3.40;;
62915;SDS011;49010;51.230;-2.306;2023-02-20T19:43:49;8.15;;;3.80;;
62915;SDS011;49010;51.230;-2.306;2023-02-20T19:47:31;5.28;;;3.60;;
62915;SDS011;49010;51.230;-2.306;2023-02-20T19:51:14;10.70;;;4.57;;
62915;SDS011;49010;51.230;-2.306;2023-02-20T19:54:57;8.35;;;4.25;;
62915;SDS011;49010;51.230;-2.306;2023-02-20T19:58:39;9.10;;;4.65;;
62915;SDS011;49010;51.230;-2.306;2023-02-20T20:02:21;8.88;;;4.65;;
62915;SDS011;49010;51.230;-2.306;2023-02-20T20:06:09;8.70;;;5.22;;
62915;SDS011;49010;51.230;-2.306;2023-02-20T20:09:52;6.68;;;4.20;;
62915;SDS011;49010;51.230;-2.306;2023-02-20T20:13:34;8.82;;;4.93;;
62915;SDS011;49010;51.230;-2.306;2023-02-20T20:17:15;7.63;;;3.90;;
62915;SDS011;49010;51.230;-2.306;2023-02-20T20:20:57;5.18;;;3.10;;
62915;SDS011;49010;51.230;-2.306;2023-02-20T20:24:39;5.43;;;2.83;;
62915;SDS011;49010;51.230;-2.306;2023-02-20T20:28:21;9.07;;;4.50;;
62915;SDS011;49010;51.230;-2.306;2023-02-20T20:32:03;6.72;;;4.03;;
62915;SDS011;49010;51.230;-2.306;2023-02-20T20:35:45;8.98;;;4.72;;
62915;SDS011;49010;51.230;-2.306;2023-02-20T20:39:27;5.22;;;4.13;;
62915;SDS011;49010;51.230;-2.306;2023-02-20T20:43:09;5.88;;;3.88;;
62915;SDS011;49010;51.230;-2.306;2023-02-20T20:46:53;9.48;;;5.25;;
62915;SDS011;49010;51.230;-2.306;2023-02-20T20:50:34;8.23;;;5.18;;
62915;SDS011;49010;51.230;-2.306;2023-02-20T20:54:16;7.70;;;4.97;;
62915;SDS011;49010;51.230;-2.306;2023-02-20T20:57:58;10.48;;;4.43;;
62915;SDS011;49010;51.230;-2.306;2023-02-20T21:01:40;7.05;;;4.45;;
62915;SDS011;49010;51.230;-2.306;2023-02-20T21:05:24;6.60;;;3.88;;
62915;SDS011;49010;51.230;-2.306;2023-02-20T21:09:08;6.80;;;4.35;;
62915;SDS011;49010;51.230;-2.306;2023-02-20T21:12:51;5.70;;;3.97;;
62915;SDS011;49010;51.230;-2.306;2023-02-20T21:16:33;4.07;;;2.10;;
62915;SDS011;49010;51.230;-2.306;2023-02-20T21:20:16;3.40;;;1.88;;
62915;SDS011;49010;51.230;-2.306;2023-02-20T21:24:00;2.33;;;1.20;;
62915;SDS011;49010;51.230;-2.306;2023-02-20T21:27:42;2.70;;;1.23;;
62915;SDS011;49010;51.230;-2.306;2023-02-20T21:31:24;4.47;;;2.10;;
62915;SDS011;49010;51.230;-2.306;2023-02-20T21:35:06;4.40;;;1.83;;
62915;SDS011;49010;51.230;-2.306;2023-02-20T21:38:48;3.83;;;1.77;;
62915;SDS011;49010;51.230;-2.306;2023-02-20T21:42:30;2.85;;;1.65;;
62915;SDS011;49010;51.230;-2.306;2023-02-20T21:46:30;4.20;;;2.20;;
62915;SDS011;49010;51.230;-2.306;2023-02-20T21:50:13;3.78;;;2.22;;
62915;SDS011;49010;51.230;-2.306;2023-02-20T21:53:56;6.30;;;2.03;;
62915;SDS011;49010;51.230;-2.306;2023-02-20T21:57:38;2.40;;;1.83;;
62915;SDS011;49010;51.230;-2.306;2023-02-20T22:01:20;2.72;;;1.70;;
62915;SDS011;49010;51.230;-2.306;2023-02-20T22:05:01;1.17;;;1.05;;
62915;SDS011;49010;51.230;-2.306;2023-02-20T22:08:43;1.52;;;1.30;;
62915;SDS011;49010;51.230;-2.306;2023-02-20T22:12:44;2.92;;;1.40;;
62915;SDS011;49010;51.230;-2.306;2023-02-20T22:16:44;3.38;;;1.65;;
62915;SDS011;49010;51.230;-2.306;2023-02-20T22:20:44;2.63;;;1.48;;
62915;SDS011;49010;51.230;-2.306;2023-02-20T22:24:45;2.10;;;1.30;;
62915;SDS011;49010;51.230;-2.306;2023-02-20T22:28:46;4.65;;;1.38;;
62915;SDS011;49010;51.230;-2.306;2023-02-20T22:32:46;2.17;;;1.75;;
62915;SDS011;49010;51.230;-2.306;2023-02-20T22:36:47;2.65;;;1.50;;
62915;SDS011;49010;51.230;-2.306;2023-02-20T22:40:47;5.40;;;1.83;;
62915;SDS011;49010;51.230;-2.306;2023-02-20T22:44:48;2.75;;;2.03;;
62915;SDS011;49010;51.230;-2.306;2023-02-20T22:48:48;2.47;;;1.52;;
62915;SDS011;49010;51.230;-2.306;2023-02-20T22:52:49;3.28;;;1.67;;
62915;SDS011;49010;51.230;-2.306;2023-02-20T22:56:50;4.80;;;1.95;;
62915;SDS011;49010;51.230;-2.306;2023-02-20T23:00:50;5.20;;;1.83;;
62915;SDS011;49010;51.230;-2.306;2023-02-20T23:04:51;3.58;;;1.88;;
62915;SDS011;49010;51.230;-2.306;2023-02-20T23:08:51;3.70;;;1.80;;
62915;SDS011;49010;51.230;-2.306;2023-02-20T23:12:52;3.92;;;2.58;;
62915;SDS011;49010;51.230;-2.306;2023-02-20T23:16:52;5.80;;;1.83;;
62915;SDS011;49010;51.230;-2.306;2023-02-20T23:20:53;3.30;;;2.17;;
62915;SDS011;49010;51.230;-2.306;2023-02-20T23:24:54;2.95;;;1.80;;
62915;SDS011;49010;51.230;-2.306;2023-02-20T23:28:54;3.28;;;1.95;;
62915;SDS011;49010;51.230;-2.306;2023-02-20T23:32:55;4.22;;;2.42;;
62915;SDS011;49010;51.230;-2.306;2023-02-20T23:36:55;6.47;;;2.20;;
62915;SDS011;49010;51.230;-2.306;2023-02-20T23:40:56;4.35;;;2.55;;
62915;SDS011;49010;51.230;-2.306;2023-02-20T23:44:56;4.70;;;2.55;;
62915;SDS011;49010;51.230;-2.306;2023-02-20T23:48:57;5.60;;;2.90;;
62915;SDS011;49010;51.230;-2.306;2023-02-20T23:52:57;5.18;;;3.03;;
62915;SDS011;49010;51.230;-2.306;2023-02-20T23:56:58;4.72;;;2.05;;
